createdAt,value
2018-07-24T00:00:15.898Z,0
2018-07-24T00:01:31.865Z,0
2018-07-24T00:02:47.799Z,0
2018-07-24T00:04:03.692Z,0
2018-07-24T00:05:19.634Z,0
2018-07-24T00:06:35.595Z,0
2018-07-24T00:07:51.533Z,0
2018-07-24T00:09:07.387Z,0
2018-07-24T00:10:23.281Z,0
2018-07-24T00:11:39.199Z,0
2018-07-24T00:12:55.102Z,0
2018-07-24T00:14:10.988Z,0
2018-07-24T00:15:26.878Z,0
2018-07-24T00:16:42.806Z,0
2018-07-24T00:17:58.708Z,0
2018-07-24T00:19:14.592Z,0
2018-07-24T00:20:30.483Z,0
2018-07-24T00:21:46.376Z,0
2018-07-24T00:23:02.296Z,0
2018-07-24T00:24:18.251Z,0
2018-07-24T00:25:34.134Z,0
2018-07-24T00:26:50.010Z,0
2018-07-24T00:28:05.934Z,0
2018-07-24T00:29:21.814Z,0
2018-07-24T00:30:38.668Z,0
2018-07-24T00:31:54.532Z,0
2018-07-24T00:33:10.452Z,0
2018-07-24T00:34:26.350Z,0
2018-07-24T00:35:42.213Z,0
2018-07-24T00:36:58.138Z,0
2018-07-24T00:38:14.063Z,0
2018-07-24T00:39:29.969Z,0
2018-07-24T00:40:45.827Z,0
2018-07-24T00:42:01.700Z,0
2018-07-24T00:43:17.629Z,0
2018-07-24T00:44:33.510Z,0
2018-07-24T00:45:49.427Z,0
2018-07-24T00:47:05.283Z,0
2018-07-24T00:48:21.195Z,0
2018-07-24T00:49:37.095Z,0
2018-07-24T00:50:52.995Z,0
2018-07-24T00:52:09.844Z,0
2018-07-24T00:53:25.739Z,0
2018-07-24T00:54:41.692Z,0
2018-07-24T00:55:57.593Z,0
2018-07-24T00:57:13.459Z,0
2018-07-24T00:58:29.388Z,0
2018-07-24T00:59:45.293Z,0
2018-07-24T01:01:01.223Z,0
2018-07-24T01:02:17.056Z,0
2018-07-24T01:03:32.943Z,0
2018-07-24T01:04:48.873Z,0
2018-07-24T01:06:04.781Z,0
2018-07-24T01:07:20.633Z,0
2018-07-24T01:08:36.603Z,0
2018-07-24T01:09:52.416Z,0
2018-07-24T01:11:08.314Z,0
2018-07-24T01:12:24.180Z,0
2018-07-24T01:13:40.065Z,0
2018-07-24T01:14:55.971Z,0
2018-07-24T01:16:11.859Z,0
2018-07-24T01:17:27.738Z,0
2018-07-24T01:18:43.599Z,0
2018-07-24T01:19:59.502Z,0
2018-07-24T01:21:15.412Z,0
2018-07-24T01:22:31.356Z,0
2018-07-24T01:23:47.236Z,0
2018-07-24T01:25:03.107Z,0
2018-07-24T01:26:19.017Z,0
2018-07-24T01:27:34.933Z,0
2018-07-24T01:28:50.836Z,0
2018-07-24T01:30:06.711Z,0
2018-07-24T01:31:22.594Z,0
2018-07-24T01:32:38.506Z,0
2018-07-24T01:33:54.438Z,0
2018-07-24T01:35:10.321Z,0
2018-07-24T01:36:26.215Z,0
2018-07-24T01:37:42.108Z,0
2018-07-24T01:38:58.034Z,0
2018-07-24T01:40:13.929Z,0
2018-07-24T01:41:30.785Z,0
2018-07-24T01:42:46.693Z,0
2018-07-24T01:44:02.608Z,0
2018-07-24T01:45:18.523Z,0
2018-07-24T01:46:34.405Z,0
2018-07-24T01:47:50.297Z,0
2018-07-24T01:49:06.175Z,0
2018-07-24T01:50:22.059Z,0
2018-07-24T01:51:38.964Z,0
2018-07-24T01:52:54.864Z,0
2018-07-24T01:54:10.792Z,0
2018-07-24T01:55:26.648Z,0
2018-07-24T01:56:42.634Z,0
2018-07-24T01:57:58.518Z,0
2018-07-24T01:59:14.441Z,0
2018-07-24T02:00:30.357Z,0
2018-07-24T02:01:46.299Z,0
2018-07-24T02:03:02.164Z,0
2018-07-24T02:04:18.071Z,0
2018-07-24T02:05:33.965Z,0
2018-07-24T02:06:49.867Z,0
2018-07-24T02:08:05.754Z,0
2018-07-24T02:09:21.694Z,0
2018-07-24T02:10:37.604Z,0
2018-07-24T02:11:53.483Z,0
2018-07-24T02:13:09.381Z,0
2018-07-24T02:14:25.447Z,0
2018-07-24T02:15:41.323Z,0
2018-07-24T02:16:57.238Z,0
2018-07-24T02:18:13.157Z,0
2018-07-24T02:19:29.042Z,0
2018-07-24T02:21:02.851Z,0
2018-07-24T02:22:18.753Z,0
2018-07-24T02:23:34.670Z,0
2018-07-24T02:24:50.638Z,0
2018-07-24T02:26:06.525Z,0
2018-07-24T02:27:22.395Z,0
2018-07-24T02:28:38.274Z,0
2018-07-24T02:29:54.188Z,0
2018-07-24T02:31:10.064Z,0
2018-07-24T02:32:25.940Z,0
2018-07-24T02:33:41.833Z,0
2018-07-24T02:34:57.732Z,0
2018-07-24T02:36:13.644Z,0
2018-07-24T02:37:29.523Z,0
2018-07-24T02:38:45.418Z,0
2018-07-24T02:40:01.329Z,0
2018-07-24T02:41:17.214Z,0
2018-07-24T02:42:33.109Z,0
2018-07-24T02:43:48.987Z,0
2018-07-24T02:45:04.914Z,0
2018-07-24T02:46:20.812Z,0
2018-07-24T02:47:36.669Z,0
2018-07-24T02:48:52.556Z,0
2018-07-24T02:50:08.455Z,0
2018-07-24T02:51:24.454Z,0
2018-07-24T02:52:40.336Z,0
2018-07-24T02:53:56.222Z,0
2018-07-24T02:55:12.125Z,0
2018-07-24T02:56:28.031Z,0
2018-07-24T02:57:43.928Z,0
2018-07-24T02:58:59.804Z,0
2018-07-24T03:00:15.759Z,0
2018-07-24T03:01:31.677Z,0
2018-07-24T03:02:47.557Z,0
2018-07-24T03:04:03.435Z,0
2018-07-24T03:05:19.362Z,0
2018-07-24T03:06:35.264Z,0
2018-07-24T03:07:51.158Z,0
2018-07-24T03:09:07.057Z,0
2018-07-24T03:10:23.010Z,0
2018-07-24T03:11:38.860Z,0
2018-07-24T03:12:54.761Z,0
2018-07-24T03:14:10.650Z,0
2018-07-24T03:15:26.551Z,0
2018-07-24T03:16:42.431Z,0
2018-07-24T03:17:58.319Z,0
2018-07-24T03:19:14.276Z,0
2018-07-24T03:20:30.177Z,0
2018-07-24T03:21:46.052Z,0
2018-07-24T03:23:01.942Z,0
2018-07-24T03:24:17.832Z,0
2018-07-24T03:25:33.767Z,0
2018-07-24T03:26:49.676Z,0
2018-07-24T03:28:05.644Z,0
2018-07-24T03:29:21.541Z,0
2018-07-24T03:30:37.462Z,0
2018-07-24T03:31:53.343Z,0
2018-07-24T03:33:09.212Z,0
2018-07-24T03:34:25.099Z,0
2018-07-24T03:35:41.037Z,0
2018-07-24T03:36:56.938Z,0
2018-07-24T03:38:12.838Z,0
2018-07-24T03:39:28.751Z,0
2018-07-24T03:40:44.648Z,0
2018-07-24T03:42:00.549Z,0
2018-07-24T03:43:16.438Z,0
2018-07-24T03:44:32.326Z,0
2018-07-24T03:45:48.230Z,0
2018-07-24T03:47:04.135Z,0
2018-07-24T03:48:20.020Z,5.625
2018-07-24T03:49:35.919Z,5.625
2018-07-24T03:50:51.829Z,5.625
2018-07-24T03:52:07.745Z,5.625
2018-07-24T03:53:23.642Z,5.625
2018-07-24T03:54:39.507Z,5.625
2018-07-24T03:55:55.411Z,5.625
2018-07-24T03:57:11.310Z,11.25
2018-07-24T03:58:27.184Z,11.25
2018-07-24T03:59:43.101Z,11.25
2018-07-24T04:00:59.027Z,11.25
2018-07-24T04:02:15.017Z,11.25
2018-07-24T04:03:30.923Z,16.875
2018-07-24T04:04:46.861Z,16.875
2018-07-24T04:06:02.775Z,16.875
2018-07-24T04:07:18.698Z,16.875
2018-07-24T04:08:34.613Z,22.5
2018-07-24T04:09:50.480Z,22.5
2018-07-24T04:11:06.381Z,22.5
2018-07-24T04:12:22.321Z,22.5
2018-07-24T04:13:38.275Z,28.125
2018-07-24T04:14:54.166Z,28.125
2018-07-24T04:16:10.104Z,28.125
2018-07-24T04:17:25.995Z,33.75
2018-07-24T04:18:41.917Z,33.75
2018-07-24T04:19:57.842Z,33.75
2018-07-24T04:21:13.717Z,33.75
2018-07-24T04:22:29.620Z,39.375
2018-07-24T04:23:45.508Z,39.375
2018-07-24T04:25:01.420Z,39.375
2018-07-24T04:26:17.317Z,45
2018-07-24T04:27:33.213Z,45
2018-07-24T04:28:49.123Z,45
2018-07-24T04:30:05.017Z,50.625
2018-07-24T04:31:20.889Z,50.625
2018-07-24T04:32:36.800Z,50.625
2018-07-24T04:33:52.727Z,50.625
2018-07-24T04:35:08.655Z,56.25
2018-07-24T04:36:24.604Z,56.25
2018-07-24T04:37:40.486Z,56.25
2018-07-24T04:38:56.428Z,61.875
2018-07-24T04:40:12.418Z,61.875
2018-07-24T04:41:28.273Z,61.875
2018-07-24T04:42:44.139Z,61.875
2018-07-24T04:44:00.047Z,67.5
2018-07-24T04:45:15.953Z,67.5
2018-07-24T04:46:31.850Z,67.5
2018-07-24T04:47:47.759Z,73.125
2018-07-24T04:49:03.712Z,73.125
2018-07-24T04:50:19.646Z,73.125
2018-07-24T04:51:35.549Z,73.125
2018-07-24T04:52:51.450Z,78.75
2018-07-24T04:54:07.456Z,78.75
2018-07-24T04:55:23.406Z,78.75
2018-07-24T04:56:39.314Z,84.375
2018-07-24T04:57:55.178Z,84.375
2018-07-24T04:59:11.075Z,84.375
2018-07-24T05:00:26.964Z,84.375
2018-07-24T05:01:42.878Z,90
2018-07-24T05:02:58.785Z,90
2018-07-24T05:04:14.745Z,90
2018-07-24T05:05:30.656Z,90
2018-07-24T05:06:46.525Z,95.625
2018-07-24T05:08:02.436Z,95.625
2018-07-24T05:09:18.367Z,95.625
2018-07-24T05:10:34.329Z,95.625
2018-07-24T05:11:50.246Z,101.25
2018-07-24T05:13:06.148Z,101.25
2018-07-24T05:14:22.166Z,101.25
2018-07-24T05:15:38.117Z,101.25
2018-07-24T05:16:54.062Z,101.25
2018-07-24T05:18:09.989Z,106.875
2018-07-24T05:19:25.883Z,106.875
2018-07-24T05:20:41.803Z,106.875
2018-07-24T05:21:57.726Z,106.875
2018-07-24T05:23:13.724Z,112.5
2018-07-24T05:24:29.633Z,112.5
2018-07-24T05:25:45.732Z,112.5
2018-07-24T05:27:01.560Z,112.5
2018-07-24T05:28:17.489Z,112.5
2018-07-24T05:29:33.382Z,118.125
2018-07-24T05:30:49.307Z,118.125
2018-07-24T05:32:05.221Z,118.125
2018-07-24T05:33:21.124Z,118.125
2018-07-24T05:34:37.052Z,123.75
2018-07-24T05:35:53.001Z,123.75
2018-07-24T05:37:08.947Z,123.75
2018-07-24T05:38:24.834Z,123.75
2018-07-24T05:39:40.811Z,123.75
2018-07-24T05:40:56.802Z,123.75
2018-07-24T05:42:12.772Z,129.375
2018-07-24T05:43:28.719Z,129.375
2018-07-24T05:44:44.671Z,129.375
2018-07-24T05:46:00.654Z,129.375
2018-07-24T05:47:16.567Z,129.375
2018-07-24T05:48:32.532Z,135
2018-07-24T05:49:48.422Z,135
2018-07-24T05:51:04.346Z,135
2018-07-24T05:52:20.270Z,135
2018-07-24T05:53:36.172Z,135
2018-07-24T05:54:52.060Z,140.625
2018-07-24T05:56:07.965Z,140.625
2018-07-24T05:57:23.872Z,140.625
2018-07-24T05:58:39.810Z,140.625
2018-07-24T05:59:55.707Z,140.625
2018-07-24T06:01:11.694Z,146.25
2018-07-24T06:02:27.583Z,146.25
2018-07-24T06:03:43.487Z,146.25
2018-07-24T06:04:59.365Z,146.25
2018-07-24T06:06:15.279Z,146.25
2018-07-24T06:07:31.172Z,151.875
2018-07-24T06:08:47.065Z,151.875
2018-07-24T06:10:03.032Z,151.875
2018-07-24T06:11:18.977Z,151.875
2018-07-24T06:12:34.879Z,151.875
2018-07-24T06:13:50.874Z,151.875
2018-07-24T06:15:06.780Z,151.875
2018-07-24T06:16:22.732Z,157.5
2018-07-24T06:17:38.623Z,157.5
2018-07-24T06:18:54.546Z,157.5
2018-07-24T06:20:10.490Z,157.5
2018-07-24T06:21:26.406Z,157.5
2018-07-24T06:22:42.303Z,157.5
2018-07-24T06:23:58.230Z,163.125
2018-07-24T06:25:14.152Z,163.125
2018-07-24T06:26:30.083Z,163.125
2018-07-24T06:27:46.003Z,163.125
2018-07-24T06:29:01.973Z,163.125
2018-07-24T06:30:17.885Z,163.125
2018-07-24T06:31:33.788Z,168.75
2018-07-24T06:32:49.657Z,168.75
2018-07-24T06:34:05.598Z,168.75
2018-07-24T06:35:21.491Z,168.75
2018-07-24T06:36:37.423Z,168.75
2018-07-24T06:37:53.314Z,168.75
2018-07-24T06:39:09.262Z,174.375
2018-07-24T06:40:25.191Z,174.375
2018-07-24T06:41:41.078Z,174.375
2018-07-24T06:42:56.980Z,174.375
2018-07-24T06:44:12.937Z,174.375
2018-07-24T06:45:28.835Z,174.375
2018-07-24T06:46:44.729Z,174.375
2018-07-24T06:48:00.631Z,174.375
2018-07-24T06:49:16.539Z,174.375
2018-07-24T06:50:32.484Z,174.375
2018-07-24T06:51:48.434Z,174.375
2018-07-24T06:53:04.278Z,174.375
2018-07-24T06:54:20.241Z,174.375
2018-07-24T06:55:36.234Z,180
2018-07-24T06:56:52.165Z,180
2018-07-24T06:58:08.068Z,180
2018-07-24T06:59:24.006Z,180
2018-07-24T07:00:40.006Z,180
2018-07-24T07:01:55.884Z,185.625
2018-07-24T07:03:11.822Z,185.625
2018-07-24T07:04:27.733Z,185.625
2018-07-24T07:05:43.660Z,185.625
2018-07-24T07:06:59.554Z,185.625
2018-07-24T07:08:15.470Z,191.25
2018-07-24T07:09:31.337Z,191.25
2018-07-24T07:10:47.269Z,191.25
2018-07-24T07:12:03.189Z,196.875
2018-07-24T07:13:19.121Z,196.875
2018-07-24T07:14:34.998Z,196.875
2018-07-24T07:15:50.908Z,202.5
2018-07-24T07:17:06.846Z,202.5
2018-07-24T07:18:22.766Z,202.5
2018-07-24T07:19:38.675Z,202.5
2018-07-24T07:20:55.600Z,208.125
2018-07-24T07:22:11.509Z,208.125
2018-07-24T07:23:27.453Z,208.125
2018-07-24T07:24:43.329Z,208.125
2018-07-24T07:25:59.216Z,208.125
2018-07-24T07:27:15.143Z,208.125
2018-07-24T07:28:31.058Z,213.75
2018-07-24T07:29:46.974Z,213.75
2018-07-24T07:31:02.852Z,213.75
2018-07-24T07:32:18.795Z,213.75
2018-07-24T07:33:34.668Z,213.75
2018-07-24T07:34:50.556Z,213.75
2018-07-24T07:36:06.492Z,213.75
2018-07-24T07:37:22.421Z,219.375
2018-07-24T07:38:38.288Z,219.375
2018-07-24T07:39:54.190Z,219.375
2018-07-24T07:41:10.110Z,219.375
2018-07-24T07:42:26.054Z,219.375
2018-07-24T07:43:41.934Z,225
2018-07-24T07:44:57.840Z,225
2018-07-24T07:46:13.712Z,225
2018-07-24T07:47:29.686Z,225
2018-07-24T07:48:45.600Z,225
2018-07-24T07:50:01.523Z,225
2018-07-24T07:51:17.468Z,230.625
2018-07-24T07:52:33.483Z,230.625
2018-07-24T07:53:49.366Z,230.625
2018-07-24T07:55:05.243Z,230.625
2018-07-24T07:56:21.165Z,230.625
2018-07-24T07:57:37.115Z,230.625
2018-07-24T07:58:53.160Z,230.625
2018-07-24T08:00:08.980Z,236.25
2018-07-24T08:01:24.857Z,236.25
2018-07-24T08:02:40.803Z,236.25
2018-07-24T08:03:56.696Z,236.25
2018-07-24T08:05:12.617Z,236.25
2018-07-24T08:06:28.521Z,236.25
2018-07-24T08:07:44.478Z,241.875
2018-07-24T08:09:00.433Z,241.875
2018-07-24T08:10:16.339Z,241.875
2018-07-24T08:11:32.254Z,241.875
2018-07-24T08:12:48.128Z,241.875
2018-07-24T08:14:04.088Z,241.875
2018-07-24T08:15:20.050Z,241.875
2018-07-24T08:16:35.993Z,247.5
2018-07-24T08:17:51.911Z,247.5
2018-07-24T08:19:07.892Z,247.5
2018-07-24T08:20:23.759Z,247.5
2018-07-24T08:21:39.654Z,247.5
2018-07-24T08:22:55.553Z,247.5
2018-07-24T08:25:52.165Z,253.125
2018-07-24T08:27:08.066Z,253.125
2018-07-24T08:28:24.044Z,253.125
2018-07-24T08:29:39.966Z,253.125
2018-07-24T08:30:55.947Z,253.125
2018-07-24T08:32:11.863Z,253.125
2018-07-24T08:33:27.795Z,258.75
2018-07-24T08:34:43.674Z,258.75
2018-07-24T08:35:59.583Z,258.75
2018-07-24T08:37:15.490Z,258.75
2018-07-24T08:38:31.400Z,258.75
2018-07-24T08:39:47.274Z,258.75
2018-07-24T08:41:03.184Z,264.375
2018-07-24T08:42:19.094Z,264.375
2018-07-24T08:43:35.054Z,264.375
2018-07-24T08:44:51.021Z,264.375
2018-07-24T08:46:07.946Z,270
2018-07-24T08:47:23.869Z,270
2018-07-24T08:48:39.827Z,270
2018-07-24T08:49:55.836Z,270
2018-07-24T08:51:11.755Z,270
2018-07-24T08:52:27.710Z,270
2018-07-24T08:53:43.960Z,270
2018-07-24T08:54:59.884Z,275.625
2018-07-24T08:56:15.535Z,275.625
2018-07-24T08:57:31.437Z,275.625
2018-07-24T08:58:47.398Z,275.625
2018-07-24T09:00:03.344Z,275.625
2018-07-24T09:01:19.298Z,275.625
2018-07-24T09:02:35.181Z,281.25
2018-07-24T09:03:51.111Z,281.25
2018-07-24T09:05:07.033Z,286.875
2018-07-24T09:06:22.969Z,281.25
2018-07-24T09:07:38.861Z,281.25
2018-07-24T09:08:54.745Z,286.875
2018-07-24T09:10:10.740Z,286.875
2018-07-24T09:11:26.634Z,286.875
2018-07-24T09:12:42.563Z,286.875
2018-07-24T09:13:58.465Z,286.875
2018-07-24T09:15:14.389Z,292.5
2018-07-24T09:16:30.323Z,292.5
2018-07-24T09:17:46.235Z,292.5
2018-07-24T09:19:02.134Z,292.5
2018-07-24T09:20:18.063Z,298.125
2018-07-24T09:21:33.958Z,298.125
2018-07-24T09:22:50.002Z,298.125
2018-07-24T09:24:05.910Z,298.125
2018-07-24T09:25:21.816Z,303.75
2018-07-24T09:26:37.764Z,303.75
2018-07-24T09:27:54.650Z,303.75
2018-07-24T09:29:10.560Z,303.75
2018-07-24T09:30:26.456Z,303.75
2018-07-24T09:31:42.361Z,303.75
2018-07-24T09:32:58.252Z,309.375
2018-07-24T09:34:14.166Z,309.375
2018-07-24T09:35:30.107Z,309.375
2018-07-24T09:36:46.028Z,309.375
2018-07-24T09:38:01.940Z,309.375
2018-07-24T09:39:17.850Z,309.375
2018-07-24T09:40:33.806Z,315
2018-07-24T09:41:49.653Z,315
2018-07-24T09:43:05.560Z,315
2018-07-24T09:44:21.532Z,315
2018-07-24T09:45:37.480Z,315
2018-07-24T09:46:53.409Z,320.625
2018-07-24T09:48:09.289Z,320.625
2018-07-24T09:49:25.218Z,320.625
2018-07-24T09:50:41.215Z,326.25
2018-07-24T09:51:57.132Z,326.25
2018-07-24T09:53:13.063Z,326.25
2018-07-24T09:54:28.975Z,326.25
2018-07-24T09:55:44.928Z,326.25
2018-07-24T09:57:00.850Z,331.875
2018-07-24T09:58:16.757Z,331.875
2018-07-24T09:59:32.643Z,331.875
2018-07-24T10:00:48.530Z,331.875
2018-07-24T10:02:04.486Z,337.5
2018-07-24T10:03:20.396Z,337.5
2018-07-24T10:04:36.354Z,337.5
2018-07-24T10:05:53.315Z,337.5
2018-07-24T10:07:09.230Z,337.5
2018-07-24T10:08:25.190Z,337.5
2018-07-24T10:09:41.062Z,343.125
2018-07-24T10:10:57.021Z,343.125
2018-07-24T10:12:12.916Z,343.125
2018-07-24T10:13:28.867Z,343.125
2018-07-24T10:14:44.713Z,343.125
2018-07-24T10:16:00.619Z,343.125
2018-07-24T10:17:16.508Z,343.125
2018-07-24T10:18:31.468Z,343.125
2018-07-24T10:19:47.380Z,348.75
2018-07-24T10:21:03.292Z,348.75
2018-07-24T10:22:19.257Z,348.75
2018-07-24T10:23:35.114Z,354.375
2018-07-24T10:24:51.008Z,354.375
2018-07-24T10:26:06.900Z,354.375
2018-07-24T10:27:22.834Z,354.375
2018-07-24T10:28:38.791Z,354.375
2018-07-24T10:29:54.671Z,360
2018-07-24T10:31:10.564Z,360
2018-07-24T10:32:26.453Z,360
2018-07-24T10:33:42.371Z,360
2018-07-24T10:34:58.260Z,360
2018-07-24T10:36:14.162Z,365.625
2018-07-24T10:37:30.032Z,360
2018-07-24T10:38:45.957Z,365.625
2018-07-24T10:40:01.855Z,365.625
2018-07-24T10:41:17.746Z,365.625
2018-07-24T10:42:33.621Z,365.625
2018-07-24T10:43:49.566Z,365.625
2018-07-24T10:45:05.513Z,365.625
2018-07-24T10:46:21.429Z,365.625
2018-07-24T10:47:37.341Z,365.625
2018-07-24T10:48:54.267Z,371.25
2018-07-24T10:50:10.238Z,371.25
2018-07-24T10:51:27.135Z,371.25
2018-07-24T10:52:43.078Z,376.875
2018-07-24T10:53:59.071Z,376.875
2018-07-24T10:56:55.524Z,376.875
2018-07-24T10:58:12.198Z,376.875
2018-07-24T11:01:08.941Z,376.875
2018-07-24T11:04:06.205Z,376.875
2018-07-24T11:07:03.010Z,382.5
2018-07-24T11:08:19.135Z,376.875
2018-07-24T11:11:15.724Z,376.875
2018-07-24T11:12:31.823Z,382.5
2018-07-24T11:13:47.750Z,382.5
2018-07-24T11:15:03.795Z,382.5
2018-07-24T20:21:06.467Z,0
2018-07-24T20:22:22.439Z,0
2018-07-24T20:23:38.532Z,0
2018-07-24T20:24:54.384Z,0
2018-07-24T20:26:10.330Z,0
2018-07-24T20:27:26.367Z,0
2018-07-24T20:28:42.339Z,0
2018-07-24T20:29:58.256Z,0
2018-07-24T20:31:14.270Z,0
2018-07-24T20:32:30.213Z,0
2018-07-24T20:33:46.214Z,0
2018-07-24T20:35:02.198Z,0
2018-07-24T20:36:18.097Z,0
2018-07-24T20:37:35.054Z,0
2018-07-24T20:38:51.040Z,0
2018-07-24T20:40:07.049Z,0
2018-07-24T20:43:03.654Z,0
2018-07-24T20:44:19.687Z,0
2018-07-24T20:45:35.680Z,0
2018-07-24T20:46:51.686Z,0
2018-07-24T20:48:07.700Z,0
2018-07-24T20:49:23.711Z,0
2018-07-24T20:50:39.660Z,0
2018-07-24T20:51:55.600Z,0
2018-07-24T20:53:11.762Z,0
2018-07-24T20:54:27.765Z,0
2018-07-24T20:55:43.785Z,0
2018-07-24T20:56:59.877Z,0
2018-07-24T20:58:15.867Z,0
2018-07-24T20:59:31.863Z,0
2018-07-24T21:00:47.807Z,0
2018-07-24T21:02:03.767Z,0
2018-07-24T21:03:19.811Z,0
2018-07-24T21:04:35.684Z,0
2018-07-24T21:05:53.353Z,0
2018-07-24T21:07:11.387Z,0
2018-07-24T21:08:27.367Z,0
2018-07-24T21:09:43.427Z,0
2018-07-24T21:10:59.465Z,0
2018-07-24T21:12:15.431Z,0
2018-07-24T21:13:31.371Z,0
2018-07-24T21:14:47.368Z,0
2018-07-24T21:16:03.347Z,0
2018-07-24T21:17:19.308Z,0
2018-07-24T21:18:36.235Z,0
2018-07-24T21:19:52.166Z,0
2018-07-24T21:21:08.169Z,0
2018-07-24T21:22:24.124Z,0
2018-07-24T21:23:40.043Z,0
2018-07-24T21:24:56.036Z,0
2018-07-24T21:26:12.006Z,0
2018-07-24T21:27:27.990Z,0
2018-07-24T21:28:43.928Z,0
2018-07-24T21:29:59.882Z,0
2018-07-24T21:31:15.821Z,0
2018-07-24T21:32:31.769Z,0
2018-07-24T21:33:47.690Z,0
2018-07-24T21:35:03.642Z,0
2018-07-24T21:36:19.642Z,0
2018-07-24T21:37:35.578Z,0
2018-07-24T21:38:51.505Z,0
2018-07-24T21:40:07.430Z,0
2018-07-24T21:41:23.385Z,0
2018-07-24T21:42:39.508Z,0
2018-07-24T21:43:55.301Z,0
2018-07-24T21:45:11.179Z,0
2018-07-24T21:46:27.098Z,0
2018-07-24T21:47:42.972Z,0
2018-07-24T21:48:58.997Z,0
2018-07-24T21:50:14.824Z,0
2018-07-24T21:51:30.723Z,0
2018-07-24T21:52:46.635Z,0
2018-07-24T21:54:02.645Z,0
2018-07-24T21:55:18.642Z,0
2018-07-24T21:56:34.595Z,0
2018-07-24T21:57:50.542Z,0
2018-07-24T21:59:06.503Z,0
2018-07-24T22:00:22.608Z,0
2018-07-24T22:01:38.469Z,0
2018-07-24T22:02:54.420Z,0
2018-07-24T22:04:10.531Z,0
2018-07-24T22:05:26.437Z,0
2018-07-24T22:06:42.418Z,0
2018-07-24T22:07:58.466Z,0
2018-07-24T22:09:14.437Z,0
2018-07-24T22:10:30.373Z,0
2018-07-24T22:11:46.294Z,0
2018-07-24T22:13:02.238Z,0
2018-07-24T22:14:18.169Z,0
2018-07-24T22:15:34.398Z,0
2018-07-24T22:16:50.454Z,0
2018-07-24T22:18:06.392Z,0
2018-07-24T22:19:22.665Z,0
2018-07-24T22:20:39.013Z,0
2018-07-24T22:21:55.139Z,0
2018-07-24T22:23:11.069Z,0
2018-07-24T22:24:27.829Z,0
2018-07-24T22:25:43.723Z,0
2018-07-24T22:26:59.644Z,0
2018-07-24T22:28:15.543Z,0
2018-07-24T22:29:32.437Z,0
2018-07-24T22:30:48.369Z,0
2018-07-24T22:32:04.255Z,0
2018-07-24T22:33:20.223Z,0
2018-07-24T22:34:36.281Z,0
2018-07-24T22:35:52.246Z,0
2018-07-24T22:37:08.214Z,0
2018-07-24T22:38:24.151Z,0
2018-07-24T22:39:40.096Z,0
2018-07-24T22:40:56.015Z,0
2018-07-24T22:42:12.180Z,0
2018-07-24T22:43:28.141Z,0
2018-07-24T22:44:44.917Z,0
2018-07-24T22:46:00.828Z,0
2018-07-24T22:47:16.818Z,0
2018-07-24T22:50:17.939Z,0
2018-07-24T22:51:33.845Z,0
2018-07-24T22:52:49.752Z,0
2018-07-24T22:54:05.666Z,0
2018-07-24T22:55:21.580Z,0
2018-07-24T22:56:37.500Z,0
2018-07-24T22:57:53.379Z,0
2018-07-24T22:59:09.263Z,0
2018-07-24T23:00:25.146Z,0
2018-07-24T23:01:41.045Z,0
2018-07-24T23:02:56.914Z,0
2018-07-24T23:04:12.795Z,0
2018-07-24T23:05:28.751Z,0
2018-07-24T23:06:44.702Z,0
2018-07-24T23:08:00.617Z,0
2018-07-24T23:09:16.592Z,0
2018-07-24T23:10:32.510Z,0
2018-07-24T23:11:48.445Z,0
2018-07-24T23:13:04.352Z,0
2018-07-24T23:14:20.214Z,0
2018-07-24T23:15:36.177Z,0
2018-07-24T23:16:52.013Z,0
2018-07-24T23:18:07.912Z,0
2018-07-24T23:19:23.840Z,0
2018-07-24T23:20:39.766Z,0
2018-07-24T23:21:55.668Z,0
2018-07-24T23:23:11.571Z,0
2018-07-24T23:24:27.471Z,0
2018-07-24T23:25:43.381Z,0
2018-07-24T23:26:59.267Z,0
2018-07-24T23:28:15.198Z,0
2018-07-24T23:29:31.132Z,0
2018-07-24T23:30:47.070Z,0
2018-07-24T23:32:02.936Z,0
2018-07-24T23:33:18.838Z,0
2018-07-24T23:34:34.727Z,0
2018-07-24T23:35:50.633Z,0
2018-07-24T23:37:06.543Z,0
2018-07-24T23:38:22.480Z,0
2018-07-24T23:39:38.330Z,0
2018-07-24T23:40:54.241Z,0
2018-07-24T23:42:10.127Z,0
2018-07-24T23:43:26.019Z,0
2018-07-24T23:44:41.899Z,0
2018-07-24T23:45:57.792Z,0
2018-07-24T23:47:13.676Z,0
2018-07-24T23:48:29.572Z,0
2018-07-24T23:49:45.462Z,0
2018-07-24T23:51:01.369Z,0
2018-07-24T23:52:17.297Z,0
2018-07-24T23:53:33.215Z,0
2018-07-24T23:54:49.151Z,0
2018-07-24T23:56:05.101Z,0
2018-07-24T23:57:21.033Z,0
2018-07-24T23:58:36.921Z,0
2018-07-24T23:59:52.814Z,0
